Radford, Virginia
Current Conditions -  °F | °C
As of 8:55 AM on Thursday 23 Oct 2014 (Local Time) from KPSK Reporting Station
Overcast Overcast  
Wind Chill: 42°   Ceiling: 2000
Heat Index: 47°   Visibility: 10mi
Dew Point: 40°   Wind: 10mph
Humidity: 78%   Direction: 310°NW
Pressure: 30.14"   Gusts: 16mph
Location:  37.12°N, 80.59°W
Report Text: KPSK 231255Z AUTO 31009G14KT 10SM OVC020 08/05 A3014 RMK AO2 T00820045
Loading
Personal Weather Stations






























Interactive Weather Map
Tropical Storm Tracking
New forecast layout! Learn more

10-Day Weather Forecast

Advertisements
Track Severe Weather on mobile